Fairhope, Pennsylvania
Current Conditions -  °F | °C
As of 8:34 AM on Friday 28 Nov 2014 (Local Time) from KCBE Reporting Station
Broken Clouds Broken Clouds  
Wind Chill: 32°   Ceiling: 4900
Heat Index: 32°   Visibility: 10mi
Dew Point: 21°   Wind: 3mph
Humidity: 64%   Direction: 330°NNW
Pressure: 30.33"   Gusts: NA
Location:  39.84°N, 78.79°W
Report Text: KCBE 281334Z AUTO 33003KT 10SM SCT012 SCT020 BKN049 00/M06 A3033 RMK AO1
Loading
Personal Weather Stations






























Interactive Weather Map New forecast layout! Learn more

10-Day Weather Forecast

Advertisements
Track Severe Weather on mobile